createdAt,value
2019-03-25T00:02:09.278Z,4.30
2019-03-25T00:04:37.334Z,4.20
2019-03-25T00:07:05.986Z,4.20
2019-03-25T00:09:34.648Z,4.20
2019-03-25T00:12:02.705Z,4.20
2019-03-25T00:14:31.117Z,4.20
2019-03-25T00:16:59.327Z,4.20
2019-03-25T00:19:27.930Z,4.30
2019-03-25T00:21:56.035Z,4.30
2019-03-25T00:24:24.242Z,4.40
2019-03-25T00:26:52.364Z,4.50
2019-03-25T00:29:20.438Z,4.50
2019-03-25T00:31:48.516Z,4.60
2019-03-25T00:34:16.513Z,4.60
2019-03-25T00:36:44.752Z,4.60
2019-03-25T00:39:12.906Z,4.60
2019-03-25T00:41:41.503Z,4.60
2019-03-25T00:44:09.662Z,4.50
2019-03-25T00:46:37.680Z,4.50
2019-03-25T00:49:06.086Z,4.40
2019-03-25T00:51:34.066Z,4.40
2019-03-25T00:54:02.265Z,4.30
2019-03-25T00:56:30.635Z,4.10
2019-03-25T00:58:58.601Z,4.10
2019-03-25T01:01:27.071Z,4.00
2019-03-25T01:03:55.690Z,4.00
2019-03-25T01:06:23.778Z,4.00
2019-03-25T01:08:52.878Z,4.00
2019-03-25T01:11:21.322Z,4.00
2019-03-25T01:13:49.385Z,4.00
2019-03-25T01:16:17.955Z,3.90
2019-03-25T01:18:46.378Z,3.90
2019-03-25T01:21:16.198Z,3.70
2019-03-25T01:23:44.458Z,3.60
2019-03-25T01:26:12.769Z,3.50
2019-03-25T01:28:41.110Z,3.40
2019-03-25T01:31:09.187Z,3.30
2019-03-25T01:33:37.206Z,3.10
2019-03-25T01:36:05.351Z,3.20
2019-03-25T01:38:33.466Z,3.20
2019-03-25T01:41:01.615Z,3.10
2019-03-25T01:43:30.181Z,3.00
2019-03-25T01:45:58.242Z,3.00
2019-03-25T01:48:26.260Z,3.00
2019-03-25T01:50:54.460Z,3.00
2019-03-25T01:53:22.547Z,3.00
2019-03-25T01:55:50.932Z,3.10
2019-03-25T01:58:19.774Z,3.10
2019-03-25T02:00:47.759Z,3.10
2019-03-25T02:03:15.892Z,3.20
2019-03-25T02:05:44.024Z,3.20
2019-03-25T02:08:12.142Z,3.30
2019-03-25T02:10:41.063Z,3.30
2019-03-25T02:13:09.658Z,3.30
2019-03-25T02:15:37.749Z,3.40
2019-03-25T02:18:06.070Z,3.40
2019-03-25T02:20:34.030Z,3.40
2019-03-25T02:23:02.142Z,3.40
2019-03-25T02:25:30.343Z,3.50
2019-03-25T02:27:58.479Z,3.40
2019-03-25T02:30:26.536Z,3.40
2019-03-25T02:32:55.219Z,3.50
2019-03-25T02:35:23.293Z,3.50
2019-03-25T02:37:51.451Z,3.50
2019-03-25T02:40:19.572Z,3.50
2019-03-25T02:42:47.664Z,3.50
2019-03-25T02:45:15.753Z,3.50
2019-03-25T02:47:43.885Z,3.50
2019-03-25T02:50:12.103Z,3.50
2019-03-25T02:52:40.627Z,3.50
2019-03-25T02:55:08.912Z,3.50
2019-03-25T02:57:37.291Z,3.40
2019-03-25T03:00:07.341Z,3.40
2019-03-25T03:02:35.339Z,3.50
2019-03-25T03:05:03.709Z,3.50
2019-03-25T03:07:31.825Z,3.60
2019-03-25T03:10:00.557Z,3.60
2019-03-25T03:12:29.387Z,3.60
2019-03-25T03:14:57.477Z,3.60
2019-03-25T03:17:26.041Z,3.60
2019-03-25T03:19:55.334Z,3.60
2019-03-25T03:22:24.502Z,3.60
2019-03-25T03:24:52.921Z,3.70
2019-03-25T03:27:20.987Z,3.60
2019-03-25T03:29:49.120Z,3.60
2019-03-25T03:32:17.121Z,3.70
2019-03-25T03:34:45.835Z,3.70
2019-03-25T03:37:13.910Z,3.80
2019-03-25T03:39:42.353Z,3.90
2019-03-25T03:42:10.757Z,3.90
2019-03-25T03:44:38.740Z,3.90
2019-03-25T03:47:06.780Z,3.90
2019-03-25T03:49:34.902Z,3.90
2019-03-25T03:52:02.997Z,3.90
2019-03-25T03:54:31.321Z,3.90
2019-03-25T03:56:59.710Z,3.90
2019-03-25T03:59:28.251Z,3.90
2019-03-25T04:01:56.738Z,4.00
2019-03-25T04:04:24.969Z,4.00
2019-03-25T04:06:53.075Z,4.10
2019-03-25T04:09:21.079Z,4.10
2019-03-25T04:11:49.477Z,4.10
2019-03-25T04:14:17.913Z,4.20
2019-03-25T04:16:46.440Z,4.20
2019-03-25T04:19:14.477Z,4.20
2019-03-25T04:21:42.608Z,4.20
2019-03-25T04:24:10.804Z,4.20
2019-03-25T04:26:38.911Z,4.30
2019-03-25T04:29:06.985Z,4.40
2019-03-25T04:31:35.056Z,4.40
2019-03-25T04:34:03.127Z,4.40
2019-03-25T04:36:31.220Z,4.40
2019-03-25T04:38:59.305Z,4.40
2019-03-25T04:41:27.618Z,4.30
2019-03-25T04:43:55.896Z,4.30
2019-03-25T04:46:24.389Z,4.30
2019-03-25T04:48:52.754Z,4.30
2019-03-25T04:51:21.052Z,4.20
2019-03-25T04:53:49.162Z,4.20
2019-03-25T04:56:17.344Z,4.10
2019-03-25T04:58:45.459Z,4.10
2019-03-25T05:01:13.793Z,4.00
2019-03-25T05:03:42.304Z,4.00
2019-03-25T05:06:10.456Z,4.00
2019-03-25T05:08:39.200Z,4.00
2019-03-25T05:11:07.254Z,4.10
2019-03-25T05:13:36.730Z,4.20
2019-03-25T05:16:05.032Z,4.20
2019-03-25T05:18:33.620Z,4.20
2019-03-25T05:21:02.036Z,4.30
2019-03-25T05:23:30.200Z,4.40
2019-03-25T05:25:58.581Z,4.40
2019-03-25T05:28:27.053Z,4.50
2019-03-25T05:30:55.358Z,4.50
2019-03-25T05:33:23.486Z,4.50
2019-03-25T05:35:51.490Z,4.60
2019-03-25T05:38:19.794Z,4.60
2019-03-25T05:40:48.249Z,4.70
2019-03-25T05:43:16.231Z,4.70
2019-03-25T05:45:44.306Z,4.80
2019-03-25T05:48:12.725Z,4.80
2019-03-25T05:50:41.102Z,4.80
2019-03-25T05:53:09.195Z,4.80
2019-03-25T05:55:37.456Z,4.90
2019-03-25T05:58:06.242Z,4.90
2019-03-25T06:00:35.843Z,5.00
2019-03-25T06:03:04.322Z,5.00
2019-03-25T06:05:33.088Z,5.00
2019-03-25T06:08:01.146Z,5.00
2019-03-25T06:10:29.419Z,5.10
2019-03-25T06:12:57.696Z,5.10
2019-03-25T06:15:26.062Z,5.10
2019-03-25T06:17:54.014Z,5.10
2019-03-25T06:20:22.018Z,5.20
2019-03-25T06:22:50.098Z,5.20
2019-03-25T06:25:18.159Z,5.20
2019-03-25T06:27:46.552Z,5.30
2019-03-25T06:30:15.556Z,5.30
2019-03-25T06:32:43.725Z,5.40
2019-03-25T06:35:11.935Z,5.40
2019-03-25T06:37:39.938Z,5.40
2019-03-25T06:40:08.276Z,5.40
2019-03-25T06:42:36.962Z,5.50
2019-03-25T06:45:07.629Z,5.50
2019-03-25T06:47:36.340Z,5.60
2019-03-25T06:50:04.954Z,5.70
2019-03-25T06:52:32.919Z,5.70
2019-03-25T06:55:00.903Z,5.80
2019-03-25T06:57:29.291Z,5.90
2019-03-25T06:59:57.270Z,5.90
2019-03-25T07:02:25.375Z,6.10
2019-03-25T07:04:53.815Z,6.10
2019-03-25T07:07:22.226Z,6.20
2019-03-25T07:09:50.466Z,6.20
2019-03-25T07:12:18.753Z,6.20
2019-03-25T07:14:46.948Z,6.30
2019-03-25T07:17:14.989Z,6.30
2019-03-25T07:19:43.326Z,6.30
2019-03-25T07:22:11.332Z,6.30
2019-03-25T07:24:39.615Z,6.30
2019-03-25T07:27:07.938Z,6.30
2019-03-25T07:29:35.964Z,6.30
2019-03-25T07:32:05.018Z,6.20
2019-03-25T07:34:33.054Z,6.30
2019-03-25T07:37:01.324Z,6.40
2019-03-25T07:39:29.994Z,6.40
2019-03-25T07:41:58.010Z,6.50
2019-03-25T07:44:26.389Z,6.50
2019-03-25T07:46:54.612Z,6.50
2019-03-25T07:49:23.095Z,6.60
2019-03-25T07:51:51.192Z,6.70
2019-03-25T07:54:19.620Z,6.70
2019-03-25T07:56:47.701Z,6.80
2019-03-25T07:59:17.498Z,6.90
2019-03-25T08:01:45.802Z,7.00
2019-03-25T08:04:14.620Z,7.00
2019-03-25T08:06:43.146Z,7.20
2019-03-25T08:09:11.251Z,7.30
2019-03-25T08:11:39.415Z,7.50
2019-03-25T08:14:07.531Z,7.60
2019-03-25T08:16:36.191Z,7.60
2019-03-25T08:19:04.784Z,7.60
2019-03-25T08:21:33.083Z,7.60
2019-03-25T08:24:01.102Z,7.60
2019-03-25T08:26:29.639Z,7.60
2019-03-25T08:28:57.987Z,7.60
2019-03-25T08:31:26.600Z,7.70
2019-03-25T08:33:54.594Z,7.60
2019-03-25T08:36:22.700Z,7.70
2019-03-25T08:38:51.592Z,7.80
2019-03-25T08:41:20.318Z,7.80
2019-03-25T08:43:50.382Z,7.80
2019-03-25T08:46:18.367Z,7.80
2019-03-25T08:48:47.886Z,7.90
2019-03-25T08:51:15.963Z,7.90
2019-03-25T08:53:44.502Z,7.90
2019-03-25T08:56:12.694Z,8.10
2019-03-25T08:58:41.561Z,8.20
2019-03-25T09:01:09.829Z,8.40
2019-03-25T09:03:38.629Z,8.60
2019-03-25T09:06:07.152Z,8.70
2019-03-25T09:08:35.563Z,8.70
2019-03-25T09:11:03.553Z,8.60
2019-03-25T09:13:31.795Z,8.70
2019-03-25T09:16:00.095Z,8.70
2019-03-25T09:18:28.284Z,8.70
2019-03-25T09:20:56.557Z,8.80
2019-03-25T09:23:24.877Z,8.90
2019-03-25T09:25:53.799Z,8.90
2019-03-25T09:28:24.516Z,9.10
2019-03-25T09:31:19.296Z,9.10
2019-03-25T09:33:48.023Z,9.30
2019-03-25T09:36:18.114Z,9.10
2019-03-25T09:38:47.238Z,9.00
2019-03-25T09:41:15.711Z,9.00
2019-03-25T09:43:43.947Z,9.20
2019-03-25T09:46:12.298Z,9.40
2019-03-25T09:48:40.771Z,9.40
2019-03-25T09:51:09.246Z,9.30
2019-03-25T09:53:37.283Z,9.50
2019-03-25T09:56:05.395Z,9.50
2019-03-25T09:58:36.464Z,9.50
2019-03-25T10:01:04.966Z,9.40
2019-03-25T10:03:33.143Z,9.40
2019-03-25T10:06:01.445Z,9.30
2019-03-25T10:08:29.607Z,9.40
2019-03-25T10:10:57.805Z,9.30
2019-03-25T10:13:25.897Z,9.40
2019-03-25T10:15:54.025Z,9.60
2019-03-25T10:18:22.324Z,9.80
2019-03-25T10:20:51.094Z,10.10
2019-03-25T10:23:19.311Z,10.30
2019-03-25T10:25:47.763Z,10.60
2019-03-25T10:28:16.640Z,10.80
2019-03-25T10:30:44.780Z,10.80
2019-03-25T10:33:12.936Z,10.80
2019-03-25T10:35:41.053Z,10.70
2019-03-25T10:38:19.137Z,10.50
2019-03-25T10:40:39.492Z,10.40
2019-03-25T10:43:08.302Z,10.60
2019-03-25T10:45:37.368Z,10.80
2019-03-25T10:48:05.447Z,10.70
2019-03-25T10:50:33.739Z,10.60
2019-03-25T10:53:02.543Z,10.70
2019-03-25T10:55:30.903Z,10.80
2019-03-25T10:57:59.688Z,10.80
2019-03-25T11:00:29.120Z,10.80
2019-03-25T11:02:57.275Z,10.80
2019-03-25T11:05:25.799Z,10.80
2019-03-25T11:07:54.321Z,10.90
2019-03-25T11:10:22.511Z,10.90
2019-03-25T11:12:51.281Z,10.90
2019-03-25T11:15:20.275Z,11.20
2019-03-25T11:17:48.692Z,11.30
2019-03-25T11:20:16.877Z,11.20
2019-03-25T11:22:45.033Z,11.10
2019-03-25T11:25:13.687Z,11.00
2019-03-25T11:27:41.716Z,10.90
2019-03-25T11:30:11.189Z,10.70
2019-03-25T11:32:39.221Z,10.60
2019-03-25T11:35:08.458Z,10.70
2019-03-25T11:37:37.519Z,10.80
2019-03-25T11:40:06.520Z,11.20
2019-03-25T11:42:34.678Z,11.60
2019-03-25T11:45:03.280Z,11.90
2019-03-25T11:47:31.493Z,11.80
2019-03-25T11:50:00.062Z,11.50
2019-03-25T11:52:28.220Z,11.20
2019-03-25T11:54:56.341Z,11.00
2019-03-25T11:57:24.364Z,10.50
2019-03-25T11:59:52.770Z,9.70
2019-03-25T12:02:21.098Z,8.70
2019-03-25T12:04:49.455Z,8.30
2019-03-25T12:07:17.743Z,8.00
2019-03-25T12:09:46.308Z,7.70
2019-03-25T12:12:14.552Z,7.50
2019-03-25T12:14:42.674Z,7.40
2019-03-25T12:17:11.054Z,7.30
2019-03-25T12:19:39.660Z,7.50
2019-03-25T12:22:08.270Z,7.90
2019-03-25T12:24:36.607Z,8.10
2019-03-25T12:27:04.967Z,8.20
2019-03-25T12:29:33.041Z,8.40
2019-03-25T12:32:01.520Z,8.60
2019-03-25T12:34:30.096Z,9.10
2019-03-25T12:36:58.695Z,9.40
2019-03-25T12:39:26.697Z,9.90
2019-03-25T12:41:54.699Z,10.30
2019-03-25T12:44:23.330Z,10.50
2019-03-25T12:46:51.330Z,10.50
2019-03-25T12:49:19.870Z,10.30
2019-03-25T12:51:48.561Z,10.10
2019-03-25T12:54:17.159Z,9.50
2019-03-25T12:56:46.235Z,9.10
2019-03-25T12:59:14.310Z,8.70
2019-03-25T13:01:52.539Z,8.60
2019-03-25T13:04:12.909Z,8.50
2019-03-25T13:06:41.407Z,8.60
2019-03-25T13:09:10.139Z,8.90
2019-03-25T13:11:38.480Z,9.00
2019-03-25T13:14:07.632Z,9.30
2019-03-25T13:16:36.338Z,9.30
2019-03-25T13:19:04.633Z,9.60
2019-03-25T13:21:33.020Z,9.80
2019-03-25T13:24:01.230Z,9.80
2019-03-25T13:26:30.475Z,10.10
2019-03-25T13:29:02.415Z,10.00
2019-03-25T13:31:29.262Z,10.20
2019-03-25T13:33:57.874Z,10.50
2019-03-25T13:36:26.202Z,10.60
2019-03-25T13:38:54.240Z,10.70
2019-03-25T13:41:22.309Z,10.50
2019-03-25T13:43:50.430Z,10.30
2019-03-25T13:46:18.556Z,10.20
2019-03-25T13:48:47.117Z,10.20
2019-03-25T13:51:15.427Z,9.90
2019-03-25T13:53:43.592Z,9.80
2019-03-25T13:56:12.046Z,9.80
2019-03-25T13:58:40.393Z,9.50
2019-03-25T14:01:08.520Z,9.30
2019-03-25T14:03:37.466Z,9.20
2019-03-25T14:06:05.939Z,8.90
2019-03-25T14:08:33.978Z,8.70
2019-03-25T14:11:02.159Z,8.50
2019-03-25T14:13:31.590Z,8.20
2019-03-25T14:16:01.079Z,8.40
2019-03-25T14:18:29.251Z,8.50
2019-03-25T14:20:57.649Z,8.60
2019-03-25T14:23:26.069Z,8.80
2019-03-25T14:25:55.002Z,9.20
2019-03-25T14:28:23.854Z,9.50
2019-03-25T14:30:52.026Z,9.90
2019-03-25T14:33:20.046Z,9.90
2019-03-25T14:35:48.733Z,9.90
2019-03-25T14:38:16.891Z,9.90
2019-03-25T14:40:44.891Z,9.70
2019-03-25T14:43:13.401Z,9.70
2019-03-25T14:45:42.065Z,9.90
2019-03-25T14:48:10.795Z,9.90
2019-03-25T14:50:38.869Z,9.90
2019-03-25T14:53:07.349Z,10.10
2019-03-25T14:55:36.165Z,10.10
2019-03-25T14:58:04.269Z,10.10
2019-03-25T15:00:33.185Z,9.90
2019-03-25T15:03:01.455Z,9.70
2019-03-25T15:05:29.579Z,9.50
2019-03-25T15:07:57.674Z,9.40
2019-03-25T15:10:25.964Z,9.20
2019-03-25T15:12:54.714Z,9.20
2019-03-25T15:15:22.643Z,9.10
2019-03-25T15:17:51.275Z,9.00
2019-03-25T15:20:19.830Z,9.00
2019-03-25T15:22:48.075Z,8.70
2019-03-25T15:25:16.546Z,8.60
2019-03-25T15:27:44.989Z,8.50
2019-03-25T15:30:13.342Z,8.60
2019-03-25T15:32:42.205Z,8.70
2019-03-25T15:35:10.557Z,8.90
2019-03-25T15:37:39.058Z,9.00
2019-03-25T15:40:09.072Z,9.00
2019-03-25T15:42:37.683Z,9.00
2019-03-25T15:45:06.810Z,9.00
2019-03-25T15:47:35.592Z,9.00
2019-03-25T15:50:04.195Z,9.20
2019-03-25T15:52:32.319Z,9.40
2019-03-25T15:55:00.359Z,9.70
2019-03-25T15:57:28.939Z,9.90
2019-03-25T15:59:57.083Z,9.60
2019-03-25T16:02:25.478Z,9.50
2019-03-25T16:04:53.650Z,9.50
2019-03-25T16:07:22.114Z,9.20
2019-03-25T16:09:50.500Z,9.10
2019-03-25T16:12:18.563Z,8.90
2019-03-25T16:14:47.701Z,8.60
2019-03-25T16:17:16.238Z,8.50
2019-03-25T16:19:45.290Z,8.50
2019-03-25T16:22:13.342Z,8.30
2019-03-25T16:24:41.315Z,8.20
2019-03-25T16:27:09.395Z,8.20
2019-03-25T16:29:38.130Z,8.10
2019-03-25T16:32:06.235Z,8.10
2019-03-25T16:34:34.309Z,8.00
2019-03-25T16:37:02.475Z,7.90
2019-03-25T16:39:31.791Z,7.80
2019-03-25T16:41:59.901Z,7.80
2019-03-25T16:44:27.937Z,7.80
2019-03-25T16:46:56.766Z,7.80
2019-03-25T16:49:24.863Z,7.70
2019-03-25T16:51:52.979Z,7.70
2019-03-25T16:54:21.317Z,7.60
2019-03-25T16:56:49.401Z,7.60
2019-03-25T16:59:17.641Z,7.60
2019-03-25T17:01:46.062Z,7.60
2019-03-25T17:04:14.096Z,7.60
2019-03-25T17:06:42.193Z,7.40
2019-03-25T17:09:11.519Z,7.00
2019-03-25T17:11:41.002Z,6.50
2019-03-25T17:14:09.740Z,6.10
2019-03-25T17:16:38.089Z,5.60
2019-03-25T17:19:06.538Z,5.40
2019-03-25T17:21:34.946Z,5.40
2019-03-25T17:24:03.282Z,5.30
2019-03-25T17:26:41.798Z,5.40
2019-03-25T17:29:01.468Z,5.40
2019-03-25T17:31:29.765Z,5.60
2019-03-25T17:33:58.565Z,5.50
2019-03-25T17:36:27.203Z,5.50
2019-03-25T17:38:55.193Z,5.60
2019-03-25T17:41:23.157Z,5.60
2019-03-25T17:43:51.213Z,5.60
2019-03-25T17:46:19.276Z,5.60
2019-03-25T17:48:47.747Z,5.70
2019-03-25T17:51:16.572Z,5.70
2019-03-25T17:53:44.854Z,5.70
2019-03-25T17:56:12.968Z,5.70
2019-03-25T17:58:41.114Z,5.80
2019-03-25T18:01:14.555Z,5.90
2019-03-25T18:03:42.676Z,5.90
2019-03-25T18:06:11.042Z,5.80
2019-03-25T18:08:39.123Z,5.70
2019-03-25T18:11:07.499Z,5.70
2019-03-25T18:13:36.554Z,5.60
2019-03-25T18:16:05.160Z,5.70
2019-03-25T18:18:33.220Z,5.70
2019-03-25T18:21:01.605Z,5.70
2019-03-25T18:23:30.346Z,5.70
2019-03-25T18:25:58.459Z,5.70
2019-03-25T18:28:26.786Z,5.70
2019-03-25T18:30:55.978Z,5.60
2019-03-25T18:33:24.836Z,5.60
2019-03-25T18:35:53.240Z,5.70
2019-03-25T18:38:22.045Z,5.70
2019-03-25T18:40:50.066Z,5.70
2019-03-25T18:43:18.217Z,5.80
2019-03-25T18:45:47.664Z,5.80
2019-03-25T18:48:16.579Z,5.80
2019-03-25T18:50:44.801Z,5.80
2019-03-25T18:53:13.548Z,5.80
2019-03-25T18:55:41.956Z,5.90
2019-03-25T18:58:10.098Z,5.90
2019-03-25T19:00:39.741Z,5.90
2019-03-25T19:03:07.843Z,5.80
2019-03-25T19:05:36.331Z,5.80
2019-03-25T19:08:05.015Z,5.80
2019-03-25T19:10:33.191Z,5.80
2019-03-25T19:13:01.336Z,5.80
2019-03-25T19:15:30.143Z,5.70
2019-03-25T19:17:58.344Z,5.70
2019-03-25T19:20:26.371Z,5.70
2019-03-25T19:22:54.761Z,5.70
2019-03-25T19:25:22.904Z,5.60
2019-03-25T19:27:51.449Z,5.70
2019-03-25T19:30:19.895Z,5.80
2019-03-25T19:32:48.421Z,5.80
2019-03-25T19:35:17.200Z,5.80
2019-03-25T19:37:45.764Z,5.80
2019-03-25T19:40:14.283Z,5.80
2019-03-25T19:42:42.829Z,5.80
2019-03-25T19:45:11.251Z,5.80
2019-03-25T19:47:39.349Z,5.80
2019-03-25T19:50:08.730Z,5.90
2019-03-25T19:52:37.700Z,5.90
2019-03-25T19:55:06.314Z,5.80
2019-03-25T19:57:35.919Z,5.90
2019-03-25T20:00:05.767Z,5.90
2019-03-25T20:02:42.112Z,5.80
2019-03-25T20:05:10.348Z,5.80
2019-03-25T20:07:38.886Z,5.80
2019-03-25T20:10:09.222Z,5.70
2019-03-25T20:12:37.438Z,5.70
2019-03-25T20:15:06.586Z,5.70
2019-03-25T20:17:34.736Z,5.70
2019-03-25T20:20:03.246Z,5.70
2019-03-25T20:22:32.084Z,5.70
2019-03-25T20:25:00.565Z,5.70
2019-03-25T20:27:28.770Z,5.70
2019-03-25T20:29:56.966Z,5.70
2019-03-25T20:32:31.609Z,5.70
2019-03-25T20:34:56.093Z,5.70
2019-03-25T20:37:24.471Z,5.70
2019-03-25T20:39:53.142Z,5.70
2019-03-25T20:42:21.251Z,5.70
2019-03-25T20:44:49.734Z,5.70
2019-03-25T20:47:42.016Z,5.70
2019-03-25T20:50:10.426Z,5.60
2019-03-25T20:52:38.848Z,5.60
2019-03-25T20:55:07.693Z,5.60
2019-03-25T20:57:36.475Z,5.60
2019-03-25T21:00:06.620Z,5.60
2019-03-25T21:02:44.983Z,5.70
2019-03-25T21:05:05.731Z,5.70
2019-03-25T21:07:34.193Z,5.70
2019-03-25T21:10:02.441Z,5.70
2019-03-25T21:12:30.949Z,5.80
2019-03-25T21:14:59.703Z,5.80
2019-03-25T21:17:27.844Z,5.80
2019-03-25T21:19:56.288Z,5.90
2019-03-25T21:22:24.379Z,5.90
2019-03-25T21:24:52.492Z,5.90
2019-03-25T21:27:20.857Z,5.90
2019-03-25T21:29:49.597Z,5.90
2019-03-25T21:32:18.643Z,5.90
2019-03-25T21:34:48.917Z,6.00
2019-03-25T21:37:17.040Z,6.00
2019-03-25T21:39:45.230Z,6.00
2019-03-25T21:42:13.697Z,5.90
2019-03-25T21:44:42.200Z,5.90
2019-03-25T21:47:10.327Z,5.90
2019-03-25T21:49:39.184Z,5.90
2019-03-25T21:52:07.393Z,6.00
2019-03-25T21:54:35.527Z,6.00
2019-03-25T21:57:03.708Z,6.00
2019-03-25T21:59:32.158Z,6.00
2019-03-25T22:02:00.297Z,6.00
2019-03-25T22:04:28.838Z,6.00
2019-03-25T22:06:56.830Z,6.00
2019-03-25T22:09:25.550Z,5.90
2019-03-25T22:11:53.645Z,5.90
2019-03-25T22:14:22.078Z,5.90
2019-03-25T22:16:50.664Z,5.80
2019-03-25T22:19:19.174Z,5.90
2019-03-25T22:21:47.908Z,5.80
2019-03-25T22:24:16.130Z,5.70
2019-03-25T22:26:44.679Z,5.70
2019-03-25T22:29:13.761Z,5.60
2019-03-25T22:31:41.826Z,5.60
2019-03-25T22:34:10.060Z,5.60
2019-03-25T22:36:38.631Z,5.60
2019-03-25T22:39:08.081Z,5.50
2019-03-25T22:41:36.240Z,5.50
2019-03-25T22:44:04.501Z,5.40
2019-03-25T22:46:32.904Z,5.40
2019-03-25T22:49:01.481Z,5.40
2019-03-25T22:51:29.630Z,5.40
2019-03-25T22:53:58.135Z,5.40
2019-03-25T22:56:26.419Z,5.40
2019-03-25T22:58:54.592Z,5.40
2019-03-25T23:01:22.911Z,5.50
2019-03-25T23:03:51.200Z,5.40
2019-03-25T23:06:19.398Z,5.40
2019-03-25T23:08:47.953Z,5.40
2019-03-25T23:11:17.351Z,5.40
2019-03-25T23:13:45.810Z,5.40
2019-03-25T23:16:14.391Z,5.40
2019-03-25T23:18:42.778Z,5.40
2019-03-25T23:21:11.345Z,5.40
2019-03-25T23:23:39.347Z,5.40
2019-03-25T23:26:07.962Z,5.50
2019-03-25T23:28:36.321Z,5.40
2019-03-25T23:31:04.428Z,5.40
2019-03-25T23:33:32.644Z,5.40
2019-03-25T23:36:00.713Z,5.40
2019-03-25T23:38:28.906Z,5.40
2019-03-25T23:40:57.191Z,5.40
2019-03-25T23:43:25.270Z,5.40
2019-03-25T23:45:53.639Z,5.40
2019-03-25T23:48:21.664Z,5.40
2019-03-25T23:50:49.741Z,5.40
2019-03-25T23:53:17.713Z,5.40
2019-03-25T23:55:45.906Z,5.50
2019-03-25T23:58:14.705Z,5.50
